createdAt,value
2018-12-14T00:00:58.851Z,1.86
2018-12-14T00:01:58.816Z,1.86
2018-12-14T00:02:59.002Z,1.86
2018-12-14T00:03:58.927Z,1.87
2018-12-14T00:04:58.966Z,1.85
2018-12-14T00:05:58.786Z,1.85
2018-12-14T00:06:58.793Z,1.89
2018-12-14T00:07:58.849Z,1.9
2018-12-14T00:08:58.815Z,1.93
2018-12-14T00:09:58.803Z,1.92
2018-12-14T00:10:59.013Z,1.89
2018-12-14T00:11:58.998Z,1.87
2018-12-14T00:12:58.955Z,1.86
2018-12-14T00:13:59.020Z,1.86
2018-12-14T00:14:58.849Z,1.86
2018-12-14T00:15:58.991Z,1.85
2018-12-14T00:16:59.004Z,1.85
2018-12-14T00:17:59.063Z,1.83
2018-12-14T00:18:58.986Z,1.87
2018-12-14T00:19:58.840Z,1.87
2018-12-14T00:20:58.765Z,1.87
2018-12-14T00:21:58.850Z,1.85
2018-12-14T00:22:59.012Z,1.86
2018-12-14T00:23:58.751Z,1.86
2018-12-14T00:24:58.995Z,1.94
2018-12-14T00:25:58.873Z,1.89
2018-12-14T00:26:58.755Z,1.89
2018-12-14T00:27:58.842Z,1.86
2018-12-14T00:28:58.833Z,1.89
2018-12-14T00:29:58.941Z,1.86
2018-12-14T00:30:58.951Z,1.86
2018-12-14T00:31:58.815Z,1.83
2018-12-14T00:32:58.806Z,1.85
2018-12-14T00:33:58.970Z,1.86
2018-12-14T00:34:58.684Z,1.86
2018-12-14T00:35:58.917Z,1.85
2018-12-14T00:36:58.853Z,1.83
2018-12-14T00:37:58.960Z,1.83
2018-12-14T00:38:58.848Z,1.86
2018-12-14T00:39:58.972Z,1.86
2018-12-14T00:40:59.087Z,1.82
2018-12-14T00:41:59.133Z,1.79
2018-12-14T00:42:58.983Z,1.85
2018-12-14T00:43:58.695Z,1.83
2018-12-14T00:44:59.012Z,1.83
2018-12-14T00:45:58.806Z,1.83
2018-12-14T00:46:59.049Z,1.83
2018-12-14T00:47:58.780Z,1.81
2018-12-14T00:48:58.805Z,1.83
2018-12-14T00:49:58.940Z,1.85
2018-12-14T00:50:58.784Z,1.82
2018-12-14T00:51:58.957Z,1.83
2018-12-14T00:52:58.787Z,1.82
2018-12-14T00:53:58.826Z,1.81
2018-12-14T00:54:58.920Z,1.81
2018-12-14T00:55:59.023Z,1.83
2018-12-14T00:56:58.708Z,1.82
2018-12-14T00:57:58.834Z,1.83
2018-12-14T00:58:58.904Z,1.83
2018-12-14T00:59:58.904Z,1.82
2018-12-14T01:00:58.914Z,1.83
2018-12-14T01:01:59.022Z,1.82
2018-12-14T01:02:59.339Z,1.82
2018-12-14T01:03:58.788Z,1.82
2018-12-14T01:04:58.797Z,1.83
2018-12-14T01:05:58.991Z,1.82
2018-12-14T01:06:58.917Z,1.81
2018-12-14T01:07:59.139Z,1.82
2018-12-14T01:08:58.846Z,1.81
2018-12-14T01:09:58.856Z,1.81
2018-12-14T01:10:58.672Z,1.82
2018-12-14T01:11:58.991Z,1.82
2018-12-14T01:12:58.754Z,1.79
2018-12-14T01:13:58.738Z,1.83
2018-12-14T01:14:58.938Z,1.82
2018-12-14T01:15:58.675Z,1.83
2018-12-14T01:16:58.703Z,1.82
2018-12-14T01:17:58.907Z,1.79
2018-12-14T01:18:58.630Z,1.81
2018-12-14T01:19:59.540Z,1.81
2018-12-14T01:20:58.675Z,1.79
2018-12-14T01:21:58.688Z,1.81
2018-12-14T01:22:58.664Z,1.79
2018-12-14T01:23:58.794Z,1.79
2018-12-14T01:24:58.755Z,1.76
2018-12-14T01:25:58.759Z,1.79
2018-12-14T01:26:58.739Z,1.79
2018-12-14T01:27:58.927Z,1.79
2018-12-14T01:28:58.835Z,1.76
2018-12-14T01:29:58.873Z,1.79
2018-12-14T01:30:58.722Z,1.78
2018-12-14T01:31:58.877Z,1.79
2018-12-14T01:32:58.757Z,1.79
2018-12-14T01:33:58.705Z,1.78
2018-12-14T01:34:58.672Z,1.81
2018-12-14T01:35:58.991Z,1.79
2018-12-14T01:36:58.717Z,1.81
2018-12-14T01:37:58.743Z,1.81
2018-12-14T01:38:58.715Z,1.81
2018-12-14T01:39:58.731Z,1.79
2018-12-14T01:40:58.781Z,1.83
2018-12-14T01:42:05.283Z,1.82
2018-12-14T01:42:58.678Z,1.81
2018-12-14T01:43:58.801Z,1.81
2018-12-14T01:44:58.749Z,1.79
2018-12-14T01:45:58.691Z,1.82
2018-12-14T01:46:58.685Z,1.81
2018-12-14T01:47:58.657Z,1.82
2018-12-14T01:48:58.709Z,1.81
2018-12-14T01:49:58.686Z,1.79
2018-12-14T01:50:58.739Z,1.78
2018-12-14T01:51:58.660Z,1.78
2018-12-14T01:52:58.832Z,1.78
2018-12-14T01:53:58.672Z,1.79
2018-12-14T01:54:58.849Z,1.78
2018-12-14T01:55:58.705Z,1.78
2018-12-14T01:56:58.643Z,1.78
2018-12-14T01:57:58.682Z,1.79
2018-12-14T01:58:58.766Z,1.82
2018-12-14T01:59:58.655Z,1.83
2018-12-14T02:00:58.730Z,1.81
2018-12-14T02:01:58.879Z,1.82
2018-12-14T02:02:58.665Z,1.82
2018-12-14T02:03:58.687Z,1.82
2018-12-14T02:04:58.852Z,1.83
2018-12-14T02:05:59.405Z,1.81
2018-12-14T02:06:58.822Z,1.79
2018-12-14T02:07:58.723Z,1.79
2018-12-14T02:08:58.715Z,1.79
2018-12-14T02:09:58.635Z,1.79
2018-12-14T02:10:58.660Z,1.79
2018-12-14T02:11:58.594Z,1.79
2018-12-14T02:12:59.469Z,1.78
2018-12-14T02:13:58.760Z,1.76
2018-12-14T02:14:58.725Z,1.79
2018-12-14T02:15:58.793Z,1.78
2018-12-14T02:16:58.936Z,1.76
2018-12-14T02:17:58.931Z,1.79
2018-12-14T02:18:58.644Z,1.76
2018-12-14T02:19:58.605Z,1.78
2018-12-14T02:20:58.734Z,1.78
2018-12-14T02:21:58.668Z,1.78
2018-12-14T02:22:58.982Z,1.76
2018-12-14T02:23:58.875Z,1.78
2018-12-14T02:24:58.945Z,1.76
2018-12-14T02:25:58.823Z,1.72
2018-12-14T02:26:58.696Z,1.75
2018-12-14T02:27:58.740Z,1.75
2018-12-14T02:28:58.861Z,1.73
2018-12-14T02:29:58.840Z,1.73
2018-12-14T02:30:58.944Z,1.75
2018-12-14T02:31:58.789Z,1.73
2018-12-14T02:32:58.719Z,1.73
2018-12-14T02:33:58.980Z,1.73
2018-12-14T02:34:58.697Z,1.72
2018-12-14T02:35:58.638Z,1.72
2018-12-14T02:36:58.791Z,1.75
2018-12-14T02:37:58.596Z,1.73
2018-12-14T02:38:58.728Z,1.73
2018-12-14T02:39:58.690Z,1.73
2018-12-14T02:40:58.630Z,1.78
2018-12-14T02:41:58.659Z,1.78
2018-12-14T02:42:58.833Z,1.75
2018-12-14T02:43:58.651Z,1.75
2018-12-14T02:44:58.693Z,1.73
2018-12-14T02:45:58.722Z,1.72
2018-12-14T02:46:58.838Z,1.75
2018-12-14T02:47:58.786Z,1.75
2018-12-14T02:48:58.678Z,1.72
2018-12-14T02:49:58.720Z,1.75
2018-12-14T02:50:58.729Z,1.72
2018-12-14T02:51:58.731Z,1.72
2018-12-14T02:52:58.572Z,1.71
2018-12-14T02:53:58.674Z,1.68
2018-12-14T02:54:58.760Z,1.71
2018-12-14T02:55:58.738Z,1.71
2018-12-14T02:56:58.785Z,1.71
2018-12-14T02:57:58.598Z,1.69
2018-12-14T02:58:58.615Z,1.69
2018-12-14T02:59:58.604Z,1.68
2018-12-14T03:00:58.748Z,1.69
2018-12-14T03:01:58.617Z,1.68
2018-12-14T03:02:59.101Z,1.69
2018-12-14T03:03:58.763Z,1.68
2018-12-14T03:04:58.556Z,1.66
2018-12-14T03:05:59.328Z,1.66
2018-12-14T03:06:58.725Z,1.68
2018-12-14T03:07:58.539Z,1.66
2018-12-14T03:08:58.668Z,1.66
2018-12-14T03:09:58.660Z,1.66
2018-12-14T03:10:58.680Z,1.69
2018-12-14T03:11:58.527Z,1.71
2018-12-14T03:12:58.598Z,1.66
2018-12-14T03:13:58.548Z,1.65
2018-12-14T03:14:58.483Z,1.66
2018-12-14T03:15:58.575Z,1.66
2018-12-14T03:16:58.560Z,1.71
2018-12-14T03:17:58.490Z,1.66
2018-12-14T03:18:58.536Z,1.68
2018-12-14T03:19:58.479Z,1.69
2018-12-14T03:20:58.477Z,1.68
2018-12-14T03:21:58.543Z,1.69
2018-12-14T03:22:58.573Z,1.68
2018-12-14T03:23:58.548Z,1.66
2018-12-14T03:24:58.542Z,1.66
2018-12-14T03:25:58.475Z,1.66
2018-12-14T03:26:58.469Z,1.64
2018-12-14T03:27:58.590Z,1.66
2018-12-14T03:28:58.517Z,1.65
2018-12-14T03:29:58.536Z,1.69
2018-12-14T03:30:58.554Z,1.69
2018-12-14T03:31:58.943Z,1.71
2018-12-14T03:32:58.659Z,1.72
2018-12-14T03:33:58.736Z,1.71
2018-12-14T03:34:58.588Z,1.69
2018-12-14T03:35:58.459Z,1.69
2018-12-14T03:36:58.586Z,1.66
2018-12-14T03:37:58.687Z,1.69
2018-12-14T03:38:58.562Z,1.66
2018-12-14T03:39:58.752Z,1.66
2018-12-14T03:40:58.741Z,1.65
2018-12-14T03:41:58.710Z,1.68
2018-12-14T03:42:58.566Z,1.69
2018-12-14T03:43:58.452Z,1.66
2018-12-14T03:44:58.594Z,1.66
2018-12-14T03:45:58.506Z,1.66
2018-12-14T03:46:58.666Z,1.69
2018-12-14T03:47:58.469Z,1.69
2018-12-14T03:48:58.493Z,1.69
2018-12-14T03:49:58.606Z,1.69
2018-12-14T03:50:58.438Z,1.68
2018-12-14T03:51:58.522Z,1.69
2018-12-14T03:52:58.512Z,1.69
2018-12-14T03:53:58.426Z,1.65
2018-12-14T03:54:58.633Z,1.66
2018-12-14T03:55:58.592Z,1.68
2018-12-14T03:56:58.667Z,1.68
2018-12-14T03:57:58.647Z,1.65
2018-12-14T03:58:58.538Z,1.65
2018-12-14T03:59:58.558Z,1.66
2018-12-14T04:00:59.239Z,1.68
2018-12-14T04:01:58.529Z,1.66
2018-12-14T04:02:58.448Z,1.65
2018-12-14T04:03:58.486Z,1.68
2018-12-14T04:04:58.934Z,1.64
2018-12-14T04:05:58.509Z,1.65
2018-12-14T04:06:58.892Z,1.62
2018-12-14T04:07:58.454Z,1.62
2018-12-14T04:08:58.723Z,1.64
2018-12-14T04:09:58.453Z,1.64
2018-12-14T04:10:58.426Z,1.65
2018-12-14T04:11:58.658Z,1.65
2018-12-14T04:12:58.639Z,1.66
2018-12-14T04:13:58.415Z,1.66
2018-12-14T04:14:58.651Z,1.65
2018-12-14T04:15:58.394Z,1.69
2018-12-14T04:16:58.592Z,1.68
2018-12-14T04:17:58.505Z,1.66
2018-12-14T04:18:58.411Z,1.66
2018-12-14T04:19:58.455Z,1.66
2018-12-14T04:20:58.473Z,1.66
2018-12-14T04:21:58.509Z,1.69
2018-12-14T04:22:58.541Z,1.66
2018-12-14T04:23:58.567Z,1.69
2018-12-14T04:24:58.933Z,1.68
2018-12-14T04:25:58.596Z,1.64
2018-12-14T04:26:58.478Z,1.65
2018-12-14T04:27:58.449Z,1.66
2018-12-14T04:28:58.639Z,1.66
2018-12-14T04:29:58.643Z,1.66
2018-12-14T04:30:58.468Z,1.68
2018-12-14T04:31:59.199Z,1.69
2018-12-14T04:32:58.517Z,1.72
2018-12-14T04:33:58.545Z,1.72
2018-12-14T04:34:58.598Z,1.68
2018-12-14T04:35:58.587Z,1.66
2018-12-14T04:36:58.422Z,1.68
2018-12-14T04:37:58.586Z,1.66
2018-12-14T04:38:58.421Z,1.68
2018-12-14T04:39:58.386Z,1.65
2018-12-14T04:40:58.469Z,1.64
2018-12-14T04:41:58.423Z,1.66
2018-12-14T04:42:58.757Z,1.68
2018-12-14T04:43:58.573Z,1.65
2018-12-14T04:44:58.547Z,1.64
2018-12-14T04:45:58.778Z,1.65
2018-12-14T04:46:58.374Z,1.65
2018-12-14T04:47:58.730Z,1.64
2018-12-14T04:48:58.389Z,1.64
2018-12-14T04:49:58.518Z,1.65
2018-12-14T04:50:58.646Z,1.65
2018-12-14T04:51:58.364Z,1.64
2018-12-14T04:52:58.310Z,1.66
2018-12-14T04:53:58.443Z,1.62
2018-12-14T04:54:58.532Z,1.64
2018-12-14T04:55:58.369Z,1.61
2018-12-14T04:56:58.598Z,1.62
2018-12-14T04:57:58.439Z,1.64
2018-12-14T04:58:58.352Z,1.64
2018-12-14T04:59:58.346Z,1.65
2018-12-14T05:00:58.479Z,1.65
2018-12-14T05:01:58.530Z,1.62
2018-12-14T05:02:58.384Z,1.62
2018-12-14T05:03:58.396Z,1.64
2018-12-14T05:04:58.369Z,1.62
2018-12-14T05:05:59.132Z,1.64
2018-12-14T05:06:58.428Z,1.61
2018-12-14T05:07:58.352Z,1.62
2018-12-14T05:08:58.348Z,1.61
2018-12-14T05:09:58.368Z,1.61
2018-12-14T05:10:58.481Z,1.65
2018-12-14T05:11:58.513Z,1.62
2018-12-14T05:12:58.465Z,1.61
2018-12-14T05:13:58.694Z,1.58
2018-12-14T05:14:58.498Z,1.61
2018-12-14T05:15:58.373Z,1.59
2018-12-14T05:16:58.790Z,1.59
2018-12-14T05:17:58.407Z,1.59
2018-12-14T05:18:58.449Z,1.58
2018-12-14T05:19:58.461Z,1.57
2018-12-14T05:20:58.585Z,1.59
2018-12-14T05:21:58.447Z,1.57
2018-12-14T05:22:58.284Z,1.57
2018-12-14T05:23:58.308Z,1.57
2018-12-14T05:24:58.645Z,1.58
2018-12-14T05:25:58.414Z,1.54
2018-12-14T05:26:58.340Z,1.57
2018-12-14T05:27:58.394Z,1.54
2018-12-14T05:28:58.327Z,1.57
2018-12-14T05:29:58.372Z,1.58
2018-12-14T05:30:58.455Z,1.57
2018-12-14T05:31:58.336Z,1.58
2018-12-14T05:32:58.471Z,1.61
2018-12-14T05:33:58.496Z,1.61
2018-12-14T05:34:58.417Z,1.59
2018-12-14T05:35:58.337Z,1.61
2018-12-14T05:36:58.548Z,1.61
2018-12-14T05:38:03.838Z,1.64
2018-12-14T05:38:58.437Z,1.62
2018-12-14T05:39:58.368Z,1.65
2018-12-14T05:40:59.291Z,1.62
2018-12-14T05:41:58.525Z,1.62
2018-12-14T05:43:03.263Z,1.61
2018-12-14T05:43:58.281Z,1.62
2018-12-14T05:44:58.391Z,1.61
2018-12-14T05:45:58.495Z,1.64
2018-12-14T05:46:58.627Z,1.64
2018-12-14T05:47:58.351Z,1.65
2018-12-14T05:48:58.290Z,1.68
2018-12-14T05:49:58.390Z,1.66
2018-12-14T05:50:58.834Z,1.68
2018-12-14T05:51:58.320Z,1.68
2018-12-14T05:52:58.255Z,1.69
2018-12-14T05:53:58.607Z,1.68
2018-12-14T05:54:58.377Z,1.68
2018-12-14T05:55:58.585Z,1.68
2018-12-14T05:56:58.286Z,1.68
2018-12-14T05:57:58.379Z,1.68
2018-12-14T05:58:58.439Z,1.64
2018-12-14T05:59:58.348Z,1.68
2018-12-14T06:00:58.461Z,1.66
2018-12-14T06:01:58.337Z,1.65
2018-12-14T06:02:58.355Z,1.69
2018-12-14T06:03:58.366Z,1.66
2018-12-14T06:04:58.699Z,1.68
2018-12-14T06:05:58.381Z,1.73
2018-12-14T06:06:58.447Z,1.75
2018-12-14T06:07:58.443Z,1.82
2018-12-14T06:08:58.593Z,1.82
2018-12-14T06:09:58.498Z,1.81
2018-12-14T06:10:58.576Z,1.79
2018-12-14T06:11:59.067Z,1.76
2018-12-14T06:12:59.074Z,1.76
2018-12-14T06:13:59.070Z,1.78
2018-12-14T06:14:58.475Z,1.78
2018-12-14T06:15:58.566Z,1.78
2018-12-14T06:16:58.529Z,1.83
2018-12-14T06:17:58.333Z,1.83
2018-12-14T06:18:58.438Z,1.83
2018-12-14T06:19:58.274Z,1.85
2018-12-14T06:20:58.609Z,1.82
2018-12-14T06:21:58.234Z,1.82
2018-12-14T06:22:58.352Z,1.82
2018-12-14T06:23:58.770Z,1.83
2018-12-14T06:24:58.514Z,1.82
2018-12-14T06:25:58.450Z,1.79
2018-12-14T06:26:58.334Z,1.76
2018-12-14T06:27:58.375Z,1.78
2018-12-14T06:28:58.441Z,1.78
2018-12-14T06:29:58.276Z,1.75
2018-12-14T06:30:58.357Z,1.76
2018-12-14T06:31:58.288Z,1.73
2018-12-14T06:32:58.329Z,1.81
2018-12-14T06:33:58.217Z,1.86
2018-12-14T06:34:58.318Z,1.79
2018-12-14T06:35:58.482Z,1.81
2018-12-14T06:36:58.207Z,1.82
2018-12-14T06:37:58.205Z,1.81
2018-12-14T06:38:58.292Z,1.81
2018-12-14T06:39:58.258Z,1.79
2018-12-14T06:40:58.498Z,1.75
2018-12-14T06:41:58.193Z,1.76
2018-12-14T06:42:58.285Z,1.78
2018-12-14T06:43:58.199Z,1.75
2018-12-14T06:44:58.195Z,1.73
2018-12-14T06:45:58.290Z,1.73
2018-12-14T06:46:58.202Z,1.72
2018-12-14T06:47:58.663Z,1.75
2018-12-14T06:48:58.229Z,1.73
2018-12-14T06:49:58.191Z,1.75
2018-12-14T06:50:58.238Z,1.75
2018-12-14T06:51:58.206Z,1.75
2018-12-14T06:52:58.194Z,1.71
2018-12-14T06:53:58.303Z,1.76
2018-12-14T06:54:58.171Z,1.73
2018-12-14T06:55:58.288Z,1.73
2018-12-14T06:56:58.357Z,1.78
2018-12-14T06:57:58.644Z,1.73
2018-12-14T06:58:58.462Z,1.75
2018-12-14T06:59:58.420Z,1.73
2018-12-14T07:00:58.470Z,1.78
2018-12-14T07:01:58.299Z,1.76
2018-12-14T07:02:58.218Z,1.75
2018-12-14T07:03:58.437Z,1.78
2018-12-14T07:04:58.335Z,1.81
2018-12-14T07:05:58.531Z,1.86
2018-12-14T07:07:04.378Z,1.81
2018-12-14T07:07:58.561Z,1.81
2018-12-14T07:08:58.279Z,1.82
2018-12-14T07:09:58.311Z,1.76
2018-12-14T07:10:58.233Z,1.76
2018-12-14T07:11:58.490Z,1.78
2018-12-14T07:12:58.248Z,1.78
2018-12-14T07:13:58.236Z,1.76
2018-12-14T07:14:58.336Z,1.76
2018-12-14T07:15:58.352Z,1.73
2018-12-14T07:16:58.448Z,1.75
2018-12-14T07:17:58.579Z,1.73
2018-12-14T07:18:58.556Z,1.71
2018-12-14T07:19:58.193Z,1.73
2018-12-14T07:20:58.421Z,1.72
2018-12-14T07:21:58.251Z,1.71
2018-12-14T07:22:58.592Z,1.72
2018-12-14T07:23:58.233Z,1.73
2018-12-14T07:24:58.296Z,1.76
2018-12-14T07:25:58.309Z,1.75
2018-12-14T07:26:58.279Z,1.75
2018-12-14T07:27:58.340Z,1.76
2018-12-14T07:28:58.137Z,1.78
2018-12-14T07:29:58.197Z,1.83
2018-12-14T07:30:58.183Z,1.81
2018-12-14T07:31:58.269Z,1.81
2018-12-14T07:32:58.341Z,1.82
2018-12-14T07:33:58.129Z,1.85
2018-12-14T07:34:58.369Z,1.85
2018-12-14T07:35:58.294Z,1.86
2018-12-14T07:36:58.143Z,1.83
2018-12-14T07:37:58.307Z,1.81
2018-12-14T07:38:58.288Z,1.81
2018-12-14T07:39:58.434Z,1.79
2018-12-14T07:40:58.148Z,1.83
2018-12-14T07:41:58.178Z,1.81
2018-12-14T07:42:58.836Z,1.79
2018-12-14T07:43:58.170Z,1.79
2018-12-14T07:44:58.605Z,1.81
2018-12-14T07:45:58.191Z,1.73
2018-12-14T07:46:58.299Z,1.73
2018-12-14T07:47:58.246Z,1.69
2018-12-14T07:48:58.398Z,1.71
2018-12-14T07:49:58.268Z,1.69
2018-12-14T07:50:58.277Z,1.72
2018-12-14T07:51:58.360Z,1.68
2018-12-14T07:52:58.117Z,1.69
2018-12-14T07:53:58.751Z,1.66
2018-12-14T07:54:58.323Z,1.68
2018-12-14T07:55:58.209Z,1.66
2018-12-14T07:56:58.773Z,1.66
2018-12-14T07:57:58.257Z,1.68
2018-12-14T07:58:58.238Z,1.69
2018-12-14T07:59:58.161Z,1.68
2018-12-14T08:00:58.151Z,1.69
2018-12-14T08:01:58.429Z,1.66
2018-12-14T08:02:58.106Z,1.69
2018-12-14T08:03:58.344Z,1.66
2018-12-14T08:04:58.092Z,1.68
2018-12-14T08:05:58.261Z,1.66
2018-12-14T08:06:58.657Z,1.69
2018-12-14T08:07:58.175Z,1.71
2018-12-14T08:08:58.247Z,1.71
2018-12-14T08:09:58.108Z,1.69
2018-12-14T08:10:58.281Z,1.66
2018-12-14T08:11:58.115Z,1.65
2018-12-14T08:12:58.159Z,1.68
2018-12-14T08:13:58.295Z,1.71
2018-12-14T08:14:58.245Z,1.69
2018-12-14T08:15:58.296Z,1.66
2018-12-14T08:16:58.112Z,1.69
2018-12-14T08:17:58.094Z,1.68
2018-12-14T08:18:58.141Z,1.68
2018-12-14T08:19:58.098Z,1.69
2018-12-14T08:20:58.156Z,1.69
2018-12-14T08:21:58.134Z,1.71
2018-12-14T08:22:58.095Z,1.69
2018-12-14T08:23:58.104Z,1.71
2018-12-14T08:24:58.066Z,1.69
2018-12-14T08:25:58.088Z,1.68
2018-12-14T08:26:58.061Z,1.68
2018-12-14T08:27:58.084Z,1.68
2018-12-14T08:28:58.075Z,1.68
2018-12-14T08:29:58.083Z,1.66
2018-12-14T08:30:58.234Z,1.66
2018-12-14T08:31:58.079Z,1.71
2018-12-14T08:32:58.136Z,1.68
2018-12-14T08:33:58.203Z,1.69
2018-12-14T08:34:58.084Z,1.69
2018-12-14T08:35:58.175Z,1.66
2018-12-14T08:36:58.091Z,1.69
2018-12-14T08:37:58.385Z,1.68
2018-12-14T08:38:58.256Z,1.69
2018-12-14T08:39:58.137Z,1.69
2018-12-14T08:40:58.190Z,1.69
2018-12-14T08:41:58.474Z,1.65
2018-12-14T08:42:58.112Z,1.68
2018-12-14T08:43:58.087Z,1.66
2018-12-14T08:44:58.223Z,1.69
2018-12-14T08:45:58.109Z,1.75
2018-12-14T08:46:58.525Z,1.73
2018-12-14T08:47:58.095Z,1.72
2018-12-14T08:48:58.597Z,1.71
2018-12-14T08:49:58.067Z,1.75
2018-12-14T08:50:58.071Z,1.71
2018-12-14T08:51:58.868Z,1.69
2018-12-14T08:52:58.099Z,1.68
2018-12-14T08:53:58.096Z,1.66
2018-12-14T08:54:58.087Z,1.66
2018-12-14T08:55:58.045Z,1.68
2018-12-14T08:56:58.155Z,1.69
2018-12-14T08:57:58.324Z,1.71
2018-12-14T08:58:58.204Z,1.68
2018-12-14T08:59:58.047Z,1.69
2018-12-14T09:00:58.253Z,1.68
2018-12-14T09:01:58.242Z,1.68
2018-12-14T09:02:58.071Z,1.71
2018-12-14T09:03:58.109Z,1.71
2018-12-14T09:04:58.535Z,1.69
2018-12-14T09:05:58.107Z,1.71
2018-12-14T09:06:58.037Z,1.69
2018-12-14T09:07:58.010Z,1.68
2018-12-14T09:08:58.250Z,1.69
2018-12-14T09:09:58.059Z,1.72
2018-12-14T09:10:58.125Z,1.72
2018-12-14T09:11:58.336Z,1.72
2018-12-14T09:12:58.045Z,1.72
2018-12-14T09:13:58.038Z,1.72
2018-12-14T09:14:58.250Z,1.73
2018-12-14T09:15:58.200Z,1.71
2018-12-14T09:16:58.080Z,1.72
2018-12-14T09:17:58.092Z,1.72
2018-12-14T09:18:58.243Z,1.72
2018-12-14T09:19:58.413Z,1.72
2018-12-14T09:21:01.422Z,1.73
2018-12-14T09:21:58.126Z,1.69
2018-12-14T09:22:58.145Z,1.73
2018-12-14T09:23:58.027Z,1.72
2018-12-14T09:24:58.012Z,1.71
2018-12-14T09:25:57.975Z,1.69
2018-12-14T09:26:58.088Z,1.69
2018-12-14T09:27:58.240Z,1.71
2018-12-14T09:28:58.414Z,1.71
2018-12-14T09:29:58.116Z,1.71
2018-12-14T09:30:58.193Z,1.71
2018-12-14T09:31:58.458Z,1.69
2018-12-14T09:32:58.232Z,1.68
2018-12-14T09:33:58.075Z,1.68
2018-12-14T09:34:58.271Z,1.68
2018-12-14T09:35:58.011Z,1.69
2018-12-14T09:36:58.098Z,1.69
2018-12-14T09:37:58.043Z,1.69
2018-12-14T09:38:58.253Z,1.68
2018-12-14T09:39:58.027Z,1.68
2018-12-14T09:40:58.271Z,1.71
2018-12-14T09:41:58.110Z,1.69
2018-12-14T09:42:58.049Z,1.72
2018-12-14T09:43:57.977Z,1.72
2018-12-14T09:44:58.064Z,1.71
2018-12-14T09:45:58.216Z,1.71
2018-12-14T09:46:58.085Z,1.69
2018-12-14T09:47:58.237Z,1.71
2018-12-14T09:48:58.030Z,1.69
2018-12-14T09:49:58.363Z,1.69
2018-12-14T09:50:58.037Z,1.68
2018-12-14T09:51:58.366Z,1.72
2018-12-14T09:52:58.221Z,1.76
2018-12-14T09:53:58.343Z,1.79
2018-12-14T09:54:58.044Z,1.79
2018-12-14T09:55:58.166Z,1.73
2018-12-14T09:56:58.072Z,1.76
2018-12-14T09:57:58.214Z,1.75
2018-12-14T09:58:58.534Z,1.78
2018-12-14T09:59:58.481Z,1.73
2018-12-14T10:00:58.144Z,1.71
2018-12-14T10:01:58.004Z,1.73
2018-12-14T10:02:58.120Z,1.75
2018-12-14T10:03:58.196Z,1.72
2018-12-14T10:04:58.149Z,1.72
2018-12-14T10:05:58.068Z,1.72
2018-12-14T10:06:58.470Z,1.72
2018-12-14T10:07:57.935Z,1.73
2018-12-14T10:08:58.036Z,1.78
2018-12-14T10:09:58.457Z,1.79
2018-12-14T10:10:58.060Z,1.78
2018-12-14T10:11:58.257Z,1.75
2018-12-14T10:12:58.345Z,1.76
2018-12-14T10:14:01.105Z,1.78
2018-12-14T10:14:58.089Z,1.76
2018-12-14T10:15:58.041Z,1.76
2018-12-14T10:16:58.217Z,1.78
2018-12-14T10:17:58.170Z,1.78
2018-12-14T10:18:58.200Z,1.79
2018-12-14T10:19:58.036Z,1.81
2018-12-14T10:20:58.097Z,1.78
2018-12-14T10:21:58.218Z,1.81
2018-12-14T10:22:58.490Z,1.81
2018-12-14T10:23:58.333Z,1.82
2018-12-14T10:24:58.432Z,1.82
2018-12-14T10:25:57.939Z,1.81
2018-12-14T10:26:58.045Z,1.83
2018-12-14T10:27:58.344Z,1.82
2018-12-14T10:28:58.920Z,1.86
2018-12-14T10:29:58.174Z,1.85
2018-12-14T10:30:58.318Z,1.85
2018-12-14T10:31:57.922Z,1.81
2018-12-14T10:32:58.271Z,1.81
2018-12-14T10:33:58.462Z,1.83
2018-12-14T10:34:58.308Z,1.85
2018-12-14T10:35:58.064Z,1.89
2018-12-14T10:36:58.036Z,1.86
2018-12-14T10:37:58.215Z,1.89
2018-12-14T10:38:57.926Z,1.9
2018-12-14T10:39:58.191Z,1.85
2018-12-14T10:40:58.038Z,1.86
2018-12-14T10:41:58.004Z,1.81
2018-12-14T10:42:57.910Z,1.78
2018-12-14T10:43:58.306Z,1.81
2018-12-14T10:44:58.049Z,1.81
2018-12-14T10:45:57.914Z,1.82
2018-12-14T10:46:57.921Z,1.86
2018-12-14T10:47:58.062Z,1.86
2018-12-14T10:48:57.914Z,1.87
2018-12-14T10:49:58.147Z,1.87
2018-12-14T10:50:58.025Z,1.86
2018-12-14T10:51:58.014Z,1.87
2018-12-14T10:52:57.914Z,1.86
2018-12-14T10:53:58.023Z,1.89
2018-12-14T10:54:58.077Z,1.89
2018-12-14T10:55:58.264Z,1.89
2018-12-14T10:56:57.973Z,1.87
2018-12-14T10:57:57.893Z,1.86
2018-12-14T10:58:58.031Z,1.86
2018-12-14T10:59:58.027Z,1.87
2018-12-14T11:00:58.124Z,1.9
2018-12-14T11:01:58.300Z,1.9
2018-12-14T11:02:58.061Z,1.9
2018-12-14T11:03:57.874Z,1.89
2018-12-14T11:04:58.000Z,1.9
2018-12-14T11:05:58.273Z,1.89
2018-12-14T11:06:57.931Z,1.9
2018-12-14T11:07:57.853Z,1.9
2018-12-14T11:08:58.230Z,1.87
2018-12-14T11:09:58.052Z,1.82
2018-12-14T11:10:58.279Z,1.82
2018-12-14T11:11:58.156Z,1.85
2018-12-14T11:12:57.644Z,1.86
2018-12-14T11:13:58.017Z,1.82
2018-12-14T11:14:58.324Z,1.85
2018-12-14T11:15:58.262Z,1.85
2018-12-14T11:16:58.662Z,1.85
2018-12-14T11:17:58.178Z,1.92
2018-12-14T11:18:58.220Z,1.92
2018-12-14T11:19:58.243Z,1.89
2018-12-14T11:20:57.950Z,1.89
2018-12-14T11:21:57.911Z,1.87
2018-12-14T11:22:57.944Z,1.89
2018-12-14T11:23:57.875Z,1.89
2018-12-14T11:24:58.198Z,1.87
2018-12-14T11:25:58.061Z,1.87
2018-12-14T11:26:57.843Z,1.89
2018-12-14T11:27:57.859Z,1.9
2018-12-14T11:28:58.071Z,1.9
2018-12-14T11:29:57.883Z,1.92
2018-12-14T11:30:58.064Z,1.87
2018-12-14T11:31:58.094Z,1.86
2018-12-14T11:32:57.960Z,1.82
2018-12-14T11:33:58.341Z,1.85
2018-12-14T11:34:58.022Z,1.85
2018-12-14T11:35:57.968Z,1.85
2018-12-14T11:36:58.054Z,1.87
2018-12-14T11:37:58.231Z,1.89
2018-12-14T11:38:57.957Z,1.85
2018-12-14T11:39:57.831Z,1.83
2018-12-14T11:40:57.821Z,1.86
2018-12-14T11:41:58.221Z,1.86
2018-12-14T11:42:58.039Z,1.83
2018-12-14T11:43:58.525Z,1.86
2018-12-14T11:44:57.988Z,1.85
2018-12-14T11:45:58.020Z,1.85
2018-12-14T11:46:58.414Z,1.85
2018-12-14T11:47:57.990Z,1.82
2018-12-14T11:48:58.142Z,1.83
2018-12-14T11:49:57.832Z,1.82
2018-12-14T11:50:57.826Z,1.82
2018-12-14T11:51:58.264Z,1.85
2018-12-14T11:52:58.082Z,1.87
2018-12-14T11:53:57.787Z,1.86
2018-12-14T11:54:58.071Z,1.86
2018-12-14T11:55:58.043Z,1.86
2018-12-14T11:56:57.988Z,1.85
2018-12-14T11:57:58.532Z,1.83
2018-12-14T11:58:58.097Z,1.85
2018-12-14T11:59:57.799Z,1.82
2018-12-14T12:00:58.451Z,1.85
2018-12-14T12:01:57.998Z,1.86
2018-12-14T12:02:58.040Z,1.85
2018-12-14T12:03:57.826Z,1.82
2018-12-14T12:04:58.037Z,1.83
2018-12-14T12:05:58.178Z,1.85
2018-12-14T12:06:57.993Z,1.85
2018-12-14T12:07:57.846Z,1.85
2018-12-14T12:08:58.030Z,1.83
2018-12-14T12:09:58.040Z,1.82
2018-12-14T12:10:57.840Z,1.81
2018-12-14T12:11:57.767Z,1.81
2018-12-14T12:12:58.031Z,1.79
2018-12-14T12:13:58.261Z,1.83
2018-12-14T12:14:57.765Z,1.78
2018-12-14T12:15:57.942Z,1.81
2018-12-14T12:16:57.825Z,1.72
2018-12-14T12:17:57.810Z,1.75
2018-12-14T12:18:57.796Z,1.72
2018-12-14T12:19:57.986Z,1.76
2018-12-14T12:20:58.054Z,1.78
2018-12-14T12:21:57.760Z,1.78
2018-12-14T12:22:57.819Z,1.76
2018-12-14T12:23:57.831Z,1.81
2018-12-14T12:24:57.772Z,1.82
2018-12-14T12:25:57.789Z,1.78
2018-12-14T12:26:57.984Z,1.81
2018-12-14T12:27:57.750Z,1.82
2018-12-14T12:28:57.780Z,1.85
2018-12-14T12:29:57.785Z,1.85
2018-12-14T12:30:57.829Z,1.82
2018-12-14T12:31:58.055Z,1.82
2018-12-14T12:32:57.763Z,1.83
2018-12-14T12:33:57.760Z,1.79
2018-12-14T12:34:57.733Z,1.9
2018-12-14T12:35:57.846Z,1.83
2018-12-14T12:36:57.801Z,1.79
2018-12-14T12:37:58.172Z,1.83
2018-12-14T12:38:57.776Z,1.85
2018-12-14T12:39:57.824Z,1.83
2018-12-14T12:40:57.972Z,1.83
2018-12-14T12:41:57.876Z,1.81
2018-12-14T12:42:57.880Z,1.78
2018-12-14T12:43:57.904Z,1.79
2018-12-14T12:44:57.967Z,1.81
2018-12-14T12:45:58.071Z,1.82
2018-12-14T12:46:58.193Z,1.85
2018-12-14T12:47:57.790Z,1.82
2018-12-14T12:48:57.954Z,1.81
2018-12-14T12:49:57.821Z,1.83
2018-12-14T12:51:03.585Z,1.85
2018-12-14T12:51:57.978Z,1.83
2018-12-14T12:52:57.821Z,1.85
2018-12-14T12:53:57.852Z,1.83
2018-12-14T12:54:57.734Z,1.83
2018-12-14T12:55:57.780Z,1.87
2018-12-14T12:56:57.698Z,1.86
2018-12-14T12:57:57.957Z,1.83
2018-12-14T12:58:57.717Z,1.87
2018-12-14T12:59:57.897Z,1.85
2018-12-14T13:00:57.824Z,1.85
2018-12-14T13:01:58.176Z,1.86
2018-12-14T13:02:57.838Z,1.86
2018-12-14T13:03:57.743Z,1.83
2018-12-14T13:04:57.758Z,1.83
2018-12-14T13:05:57.743Z,1.78
2018-12-14T13:06:57.942Z,1.78
2018-12-14T13:07:57.842Z,1.79
2018-12-14T13:08:57.845Z,1.76
2018-12-14T13:09:57.959Z,1.79
2018-12-14T13:10:57.710Z,1.79
2018-12-14T13:11:57.986Z,1.79
2018-12-14T13:12:58.130Z,1.79
2018-12-14T13:13:58.068Z,1.82
2018-12-14T13:14:57.890Z,1.81
2018-12-14T13:15:58.046Z,1.78
2018-12-14T13:16:57.669Z,1.79
2018-12-14T13:17:58.068Z,1.79
2018-12-14T13:18:57.681Z,1.81